createdAt,value
2023-05-10T00:02:19.441Z,15.11
2023-05-10T00:04:49.464Z,15.02
2023-05-10T00:07:20.503Z,15.01
2023-05-10T00:09:50.610Z,15.00
2023-05-10T00:12:21.745Z,15.02
2023-05-10T00:14:52.661Z,14.92
2023-05-10T00:17:25.906Z,15.00
2023-05-10T00:19:56.178Z,14.91
2023-05-10T00:22:28.117Z,14.80
2023-05-10T00:24:58.187Z,14.85
2023-05-10T00:27:29.688Z,14.89
2023-05-10T00:30:02.141Z,14.82
2023-05-10T00:32:38.344Z,14.70
2023-05-10T00:35:09.453Z,14.88
2023-05-10T00:37:39.434Z,14.78
2023-05-10T00:40:11.569Z,14.71
2023-05-10T00:42:43.417Z,14.78
2023-05-10T00:45:14.002Z,14.76
2023-05-10T00:47:47.513Z,14.83
2023-05-10T00:50:19.370Z,14.78
2023-05-10T00:52:49.374Z,14.78
2023-05-10T00:55:19.794Z,14.67
2023-05-10T00:57:50.968Z,14.69
2023-05-10T01:00:25.179Z,14.68
2023-05-10T01:02:58.427Z,14.64
2023-05-10T01:05:28.995Z,14.65
2023-05-10T01:08:01.734Z,14.62
2023-05-10T01:10:34.878Z,14.58
2023-05-10T01:13:08.045Z,14.52
2023-05-10T01:15:38.751Z,14.53
2023-05-10T01:18:13.899Z,14.40
2023-05-10T01:20:52.621Z,14.35
2023-05-10T01:23:51.225Z,14.35
2023-05-10T01:26:43.497Z,14.27
2023-05-10T01:29:31.797Z,14.24
2023-05-10T01:32:33.535Z,14.26
2023-05-10T01:35:06.979Z,14.21
2023-05-10T01:37:46.463Z,14.31
2023-05-10T01:40:27.781Z,14.32
2023-05-10T01:43:04.072Z,14.19
2023-05-10T01:45:41.392Z,14.19
2023-05-10T01:48:15.645Z,14.27
2023-05-10T01:50:49.555Z,14.03
2023-05-10T01:53:24.393Z,14.11
2023-05-10T01:55:57.860Z,14.04
2023-05-10T01:58:32.236Z,14.07
2023-05-10T02:01:05.788Z,14.01
2023-05-10T02:03:41.143Z,13.91
2023-05-10T02:06:13.248Z,13.96
2023-05-10T02:08:46.766Z,13.94
2023-05-10T02:11:18.113Z,13.98
2023-05-10T02:13:54.519Z,13.93
2023-05-10T02:16:42.485Z,14.01
2023-05-10T02:19:18.236Z,13.80
2023-05-10T02:21:57.105Z,13.72
2023-05-10T02:24:44.555Z,13.66
2023-05-10T02:27:34.387Z,13.85
2023-05-10T02:30:06.748Z,13.79
2023-05-10T02:32:55.123Z,13.71
2023-05-10T02:35:46.596Z,13.76
2023-05-10T02:38:21.199Z,13.78
2023-05-10T02:40:57.803Z,13.72
2023-05-10T02:43:35.012Z,13.66
2023-05-10T02:46:12.940Z,13.70
2023-05-10T02:48:46.675Z,13.65
2023-05-10T02:51:29.840Z,13.61
2023-05-10T02:54:22.691Z,13.71
2023-05-10T02:57:04.592Z,13.73
2023-05-10T02:59:46.115Z,13.71
2023-05-10T03:02:30.849Z,13.68
2023-05-10T03:05:21.389Z,13.52
2023-05-10T03:08:07.895Z,13.49
2023-05-10T03:11:12.932Z,13.51
2023-05-10T03:14:36.316Z,13.55
2023-05-10T03:20:26.226Z,13.45
2023-05-10T03:23:19.592Z,13.39
2023-05-10T03:25:52.557Z,13.33
2023-05-10T03:28:25.241Z,13.32
2023-05-10T03:30:57.152Z,13.32
2023-05-10T03:33:29.728Z,13.37
2023-05-10T03:36:03.399Z,13.35
2023-05-10T03:38:39.336Z,13.33
2023-05-10T03:41:09.854Z,13.25
2023-05-10T03:43:42.260Z,13.23
2023-05-10T03:46:12.673Z,13.20
2023-05-10T03:48:42.971Z,13.19
2023-05-10T03:51:16.912Z,13.24
2023-05-10T03:53:54.290Z,13.23
2023-05-10T03:56:25.157Z,13.27
2023-05-10T03:58:55.450Z,13.12
2023-05-10T04:01:25.422Z,13.11
2023-05-10T04:03:55.855Z,13.13
2023-05-10T04:06:27.874Z,13.18
2023-05-10T04:09:05.324Z,13.08
2023-05-10T04:11:35.364Z,13.18
2023-05-10T04:14:05.080Z,13.08
2023-05-10T04:16:36.874Z,13.04
2023-05-10T04:19:07.246Z,13.10
2023-05-10T04:21:37.327Z,13.06
2023-05-10T04:24:13.446Z,13.02
2023-05-10T04:26:43.630Z,13.03
2023-05-10T04:29:15.316Z,13.02
2023-05-10T04:31:48.193Z,13.04
2023-05-10T04:34:18.247Z,13.05
2023-05-10T04:36:48.237Z,13.08
2023-05-10T04:39:20.685Z,13.06
2023-05-10T04:41:50.836Z,13.09
2023-05-10T04:44:20.958Z,13.05
2023-05-10T04:46:52.339Z,12.97
2023-05-10T04:49:22.950Z,13.01
2023-05-10T04:51:55.132Z,13.02
2023-05-10T04:54:31.626Z,12.99
2023-05-10T04:57:01.742Z,12.82
2023-05-10T04:59:31.827Z,12.94
2023-05-10T05:02:03.034Z,12.95
2023-05-10T05:04:34.215Z,12.95
2023-05-10T05:07:04.786Z,13.02
2023-05-10T05:09:40.177Z,13.16
2023-05-10T05:12:15.314Z,13.02
2023-05-10T05:14:46.016Z,13.06
2023-05-10T05:17:16.995Z,12.96
2023-05-10T05:19:47.092Z,13.01
2023-05-10T05:22:19.652Z,13.05
2023-05-10T05:24:52.761Z,13.07
2023-05-10T05:27:23.875Z,13.07
2023-05-10T05:29:56.682Z,13.08
2023-05-10T05:32:27.807Z,13.07
2023-05-10T05:35:04.727Z,12.89
2023-05-10T05:37:36.762Z,12.99
2023-05-10T05:40:10.786Z,12.87
2023-05-10T05:42:40.906Z,12.94
2023-05-10T05:45:17.073Z,12.94
2023-05-10T05:47:48.647Z,12.93
2023-05-10T05:50:18.675Z,12.92
2023-05-10T05:52:48.593Z,13.07
2023-05-10T05:55:21.325Z,13.15
2023-05-10T05:57:51.360Z,13.21
2023-05-10T06:00:22.560Z,13.12
2023-05-10T06:02:53.155Z,13.07
2023-05-10T06:05:25.362Z,13.16
2023-05-10T06:07:55.910Z,13.30
2023-05-10T06:10:29.186Z,13.28
2023-05-10T06:12:59.326Z,13.29
2023-05-10T06:15:31.106Z,13.27
2023-05-10T06:18:01.455Z,13.33
2023-05-10T06:20:33.179Z,13.42
2023-05-10T06:23:03.193Z,13.69
2023-05-10T06:25:35.931Z,13.90
2023-05-10T06:28:06.107Z,14.08
2023-05-10T06:30:36.166Z,14.03
2023-05-10T06:33:06.184Z,14.16
2023-05-10T06:35:36.645Z,14.11
2023-05-10T06:38:06.908Z,14.11
2023-05-10T06:40:40.147Z,14.07
2023-05-10T06:43:10.749Z,13.94
2023-05-10T06:45:40.673Z,14.12
2023-05-10T06:48:10.700Z,13.98
2023-05-10T06:50:40.928Z,13.83
2023-05-10T06:53:11.205Z,13.79
2023-05-10T06:55:43.957Z,13.53
2023-05-10T06:58:15.397Z,13.08
2023-05-10T07:00:46.961Z,12.82
2023-05-10T07:03:17.382Z,12.63
2023-05-10T07:05:47.648Z,12.43
2023-05-10T07:08:20.851Z,12.37
2023-05-10T07:10:53.618Z,12.44
2023-05-10T07:13:26.656Z,12.59
2023-05-10T07:15:56.619Z,12.73
2023-05-10T07:18:26.476Z,12.80
2023-05-10T07:20:57.462Z,12.78
2023-05-10T07:23:30.848Z,12.88
2023-05-10T07:26:03.762Z,12.83
2023-05-10T07:28:38.888Z,12.70
2023-05-10T07:31:09.104Z,12.48
2023-05-10T07:33:41.323Z,12.39
2023-05-10T07:36:16.970Z,12.44
2023-05-10T07:38:47.427Z,12.30
2023-05-10T07:41:20.313Z,12.45
2023-05-10T07:43:52.688Z,12.61
2023-05-10T07:46:24.077Z,12.70
2023-05-10T07:48:55.839Z,12.71
2023-05-10T07:51:28.919Z,12.67
2023-05-10T07:53:59.312Z,12.66
2023-05-10T07:56:33.485Z,12.80
2023-05-10T07:59:04.932Z,12.96
2023-05-10T08:01:37.069Z,12.95
2023-05-10T08:04:07.516Z,12.95
2023-05-10T08:06:37.698Z,13.00
2023-05-10T08:09:09.163Z,13.15
2023-05-10T08:11:41.745Z,13.12
2023-05-10T08:14:12.187Z,13.00
2023-05-10T08:16:42.678Z,13.11
2023-05-10T08:19:13.049Z,13.09
2023-05-10T08:21:45.940Z,13.19
2023-05-10T08:24:16.067Z,13.25
2023-05-10T08:26:48.877Z,13.36
2023-05-10T08:29:22.781Z,13.34
2023-05-10T08:31:53.088Z,13.32
2023-05-10T08:34:23.359Z,13.30
2023-05-10T08:36:56.186Z,13.32
2023-05-10T08:39:30.535Z,13.32
2023-05-10T08:42:08.505Z,13.40
2023-05-10T08:44:41.726Z,13.45
2023-05-10T08:47:17.966Z,13.48
2023-05-10T08:49:52.338Z,13.63
2023-05-10T08:52:25.141Z,13.81
2023-05-10T08:54:55.537Z,13.69
2023-05-10T08:57:29.048Z,13.81
2023-05-10T08:59:59.387Z,13.91
2023-05-10T09:02:29.660Z,13.79
2023-05-10T09:05:01.698Z,13.60
2023-05-10T09:07:33.776Z,13.61
2023-05-10T09:10:07.036Z,13.56
2023-05-10T09:12:43.090Z,13.59
2023-05-10T09:15:16.427Z,13.58
2023-05-10T09:17:56.986Z,13.70
2023-05-10T09:20:30.628Z,13.74
2023-05-10T09:23:02.306Z,13.72
2023-05-10T09:25:34.594Z,13.96
2023-05-10T09:28:10.905Z,14.08
2023-05-10T09:30:41.725Z,14.13
2023-05-10T09:33:11.878Z,14.10
2023-05-10T09:35:44.136Z,14.10
2023-05-10T09:38:14.888Z,14.05
2023-05-10T09:40:58.070Z,14.12
2023-05-10T09:43:32.597Z,14.13
2023-05-10T09:46:03.799Z,14.14
2023-05-10T09:48:34.579Z,14.13
2023-05-10T09:51:05.148Z,14.14
2023-05-10T09:53:35.646Z,14.19
2023-05-10T09:56:06.438Z,14.25
2023-05-10T09:58:42.535Z,14.23
2023-05-10T10:01:16.117Z,14.22
2023-05-10T10:03:48.282Z,14.42
2023-05-10T10:06:30.159Z,14.37
2023-05-10T10:09:01.313Z,14.55
2023-05-10T10:11:34.212Z,14.54
2023-05-10T10:14:12.564Z,14.59
2023-05-10T10:16:55.458Z,14.77
2023-05-10T10:19:37.798Z,14.77
2023-05-10T10:22:12.124Z,14.58
2023-05-10T10:24:44.659Z,14.39
2023-05-10T10:27:27.993Z,14.46
2023-05-10T10:30:17.726Z,14.55
2023-05-10T10:33:27.860Z,14.51
2023-05-10T10:36:03.226Z,14.55
2023-05-10T10:38:44.494Z,14.48
2023-05-10T10:41:31.228Z,14.57
2023-05-10T10:44:32.553Z,14.70
2023-05-10T10:47:30.327Z,14.80
2023-05-10T10:50:09.622Z,14.94
2023-05-10T10:52:44.834Z,15.17
2023-05-10T10:55:19.956Z,15.31
2023-05-10T10:57:53.039Z,15.46
2023-05-10T11:00:25.880Z,15.31
2023-05-10T11:03:06.217Z,15.20
2023-05-10T11:05:42.934Z,15.20
2023-05-10T11:08:23.145Z,15.18
2023-05-10T11:10:56.034Z,15.15
2023-05-10T11:13:37.886Z,15.27
2023-05-10T11:16:20.059Z,15.19
2023-05-10T11:19:02.916Z,15.34
2023-05-10T11:21:34.351Z,15.28
2023-05-10T11:24:07.360Z,15.36
2023-05-10T11:26:39.702Z,15.56
2023-05-10T11:29:11.393Z,15.56
2023-05-10T11:31:46.820Z,15.51
2023-05-10T11:34:27.694Z,15.73
2023-05-10T11:36:59.017Z,16.10
2023-05-10T11:39:32.816Z,15.94
2023-05-10T11:42:04.688Z,16.12
2023-05-10T11:44:36.470Z,16.16
2023-05-10T11:47:07.714Z,16.27
2023-05-10T11:49:43.444Z,16.10
2023-05-10T11:52:15.359Z,16.13
2023-05-10T11:54:50.710Z,15.86
2023-05-10T11:57:22.838Z,15.92
2023-05-10T12:00:00.514Z,16.05
2023-05-10T12:02:31.070Z,16.14
2023-05-10T12:05:05.983Z,16.05
2023-05-10T12:07:37.831Z,16.08
2023-05-10T12:10:12.052Z,16.44
2023-05-10T12:12:43.263Z,16.50
2023-05-10T12:15:22.161Z,16.88
2023-05-10T12:17:53.859Z,17.31
2023-05-10T12:20:32.157Z,17.13
2023-05-10T12:23:06.935Z,17.51
2023-05-10T12:25:38.744Z,17.85
2023-05-10T12:28:10.488Z,17.92
2023-05-10T12:30:40.911Z,18.20
2023-05-10T12:33:18.090Z,18.28
2023-05-10T12:35:58.219Z,18.12
2023-05-10T12:38:36.902Z,17.89
2023-05-10T12:41:08.770Z,17.83
2023-05-10T12:43:40.620Z,17.83
2023-05-10T12:46:12.821Z,17.64
2023-05-10T12:48:46.632Z,18.31
2023-05-10T12:51:23.293Z,18.79
2023-05-10T12:53:58.912Z,18.50
2023-05-10T12:56:30.510Z,18.59
2023-05-10T12:59:05.799Z,18.42
2023-05-10T13:01:37.303Z,18.55
2023-05-10T13:04:16.008Z,18.67
2023-05-10T13:06:52.389Z,19.10
2023-05-10T13:09:24.667Z,19.36
2023-05-10T13:11:57.650Z,19.42
2023-05-10T13:14:29.822Z,19.35
2023-05-10T13:17:02.613Z,19.60
2023-05-10T13:19:35.502Z,19.51
2023-05-10T13:22:09.819Z,19.59
2023-05-10T13:24:41.497Z,18.88
2023-05-10T13:27:11.754Z,19.43
2023-05-10T13:29:43.699Z,20.07
2023-05-10T13:32:15.105Z,20.08
2023-05-10T13:34:45.295Z,20.08
2023-05-10T13:37:19.488Z,19.56
2023-05-10T13:39:50.301Z,19.80
2023-05-10T13:42:21.120Z,19.31
2023-05-10T13:44:51.442Z,19.22
2023-05-10T13:47:23.106Z,19.28
2023-05-10T13:49:54.186Z,19.33
2023-05-10T13:52:27.146Z,19.11
2023-05-10T13:54:59.379Z,19.15
2023-05-10T13:57:30.119Z,19.35
2023-05-10T14:00:03.054Z,19.21
2023-05-10T14:02:53.636Z,18.72
2023-05-10T14:05:26.544Z,18.92
2023-05-10T14:07:59.213Z,18.95
2023-05-10T14:10:29.207Z,18.97
2023-05-10T14:13:02.552Z,18.88
2023-05-10T14:15:32.845Z,19.13
2023-05-10T14:18:03.200Z,18.80
2023-05-10T14:20:35.081Z,18.47
2023-05-10T14:23:09.757Z,18.37
2023-05-10T14:25:42.092Z,18.48
2023-05-10T14:28:13.059Z,18.55
2023-05-10T14:30:45.518Z,18.78
2023-05-10T14:33:16.396Z,18.82
2023-05-10T14:35:47.162Z,18.50
2023-05-10T14:38:20.130Z,18.58
2023-05-10T14:40:51.536Z,18.99
2023-05-10T14:43:21.772Z,19.24
2023-05-10T14:45:51.763Z,19.26
2023-05-10T14:48:22.687Z,19.09
2023-05-10T14:50:54.291Z,19.48
2023-05-10T14:53:29.537Z,19.40
2023-05-10T14:56:01.461Z,19.74
2023-05-10T14:58:33.901Z,19.67
2023-05-10T15:01:04.349Z,19.81
2023-05-10T15:03:35.454Z,19.84
2023-05-10T15:06:13.963Z,19.77
2023-05-10T15:08:48.462Z,20.11
2023-05-10T15:11:23.894Z,20.00
2023-05-10T15:13:57.751Z,20.24
2023-05-10T15:16:36.664Z,19.94
2023-05-10T15:19:16.685Z,18.75
2023-05-10T15:21:55.633Z,19.65
2023-05-10T15:24:30.004Z,19.60
2023-05-10T15:27:08.104Z,19.31
2023-05-10T15:29:41.979Z,19.24
2023-05-10T15:32:18.836Z,19.45
2023-05-10T15:34:48.789Z,19.38
2023-05-10T15:37:24.509Z,19.26
2023-05-10T15:40:05.081Z,19.43
2023-05-10T15:42:38.763Z,19.49
2023-05-10T15:45:10.355Z,19.67
2023-05-10T15:47:41.086Z,19.64
2023-05-10T15:50:15.680Z,19.39
2023-05-10T15:52:46.164Z,19.63
2023-05-10T15:55:19.094Z,19.74
2023-05-10T15:57:52.190Z,19.61
2023-05-10T16:00:23.995Z,19.53
2023-05-10T16:02:56.459Z,19.55
2023-05-10T16:05:32.586Z,19.32
2023-05-10T16:08:08.120Z,19.53
2023-05-10T16:10:42.764Z,19.45
2023-05-10T16:13:15.988Z,19.44
2023-05-10T16:15:47.475Z,19.63
2023-05-10T16:18:21.825Z,19.46
2023-05-10T16:20:56.147Z,18.85
2023-05-10T16:23:34.003Z,18.75
2023-05-10T16:26:07.261Z,18.73
2023-05-10T16:28:38.027Z,18.92
2023-05-10T16:31:13.352Z,18.85
2023-05-10T16:33:43.953Z,18.68
2023-05-10T16:36:14.237Z,18.70
2023-05-10T16:38:48.666Z,18.64
2023-05-10T16:41:23.688Z,18.62
2023-05-10T16:43:55.053Z,18.66
2023-05-10T16:46:27.137Z,18.79
2023-05-10T16:49:02.120Z,18.75
2023-05-10T16:51:36.047Z,18.75
2023-05-10T16:54:13.803Z,18.51
2023-05-10T16:56:48.190Z,18.49
2023-05-10T16:59:18.294Z,18.49
2023-05-10T17:01:48.501Z,18.37
2023-05-10T17:04:20.234Z,18.28
2023-05-10T17:06:52.478Z,18.46
2023-05-10T17:09:24.580Z,18.38
2023-05-10T17:12:01.101Z,18.41
2023-05-10T17:14:32.741Z,18.33
2023-05-10T17:17:03.030Z,18.39
2023-05-10T17:19:33.846Z,18.31
2023-05-10T17:22:06.079Z,18.22
2023-05-10T17:24:36.322Z,18.18
2023-05-10T17:27:09.441Z,18.23
2023-05-10T17:29:39.948Z,17.97
2023-05-10T17:32:10.198Z,17.94
2023-05-10T17:34:43.027Z,18.12
2023-05-10T17:37:13.739Z,17.96
2023-05-10T17:39:45.796Z,17.78
2023-05-10T17:42:23.793Z,17.79
2023-05-10T17:44:56.045Z,17.47
2023-05-10T17:47:28.568Z,17.46
2023-05-10T17:50:02.696Z,17.62
2023-05-10T17:52:33.694Z,17.46
2023-05-10T17:55:04.423Z,17.46
2023-05-10T17:57:39.633Z,17.38
2023-05-10T18:00:11.805Z,17.27
2023-05-10T18:02:42.777Z,17.16
2023-05-10T18:05:14.121Z,17.07
2023-05-10T18:07:45.578Z,17.11
2023-05-10T18:10:16.175Z,17.08
2023-05-10T18:12:50.757Z,17.10
2023-05-10T18:15:21.548Z,17.11
2023-05-10T18:17:53.125Z,17.02
2023-05-10T18:20:23.906Z,16.93
2023-05-10T18:22:56.746Z,16.84
2023-05-10T18:25:28.780Z,16.84
2023-05-10T18:28:02.212Z,16.81
2023-05-10T18:30:32.448Z,16.81
2023-05-10T18:33:04.325Z,16.80
2023-05-10T18:35:37.883Z,16.80
2023-05-10T18:38:15.587Z,16.75
2023-05-10T18:40:47.945Z,16.76
2023-05-10T18:43:23.792Z,16.83
2023-05-10T18:45:54.761Z,16.79
2023-05-10T18:48:24.840Z,16.67
2023-05-10T18:50:54.634Z,16.74
2023-05-10T18:53:26.803Z,16.80
2023-05-10T18:56:02.121Z,16.74
2023-05-10T18:58:35.966Z,16.68
2023-05-10T19:01:06.246Z,16.74
2023-05-10T19:03:36.599Z,16.61
2023-05-10T19:06:06.805Z,16.70
2023-05-10T19:08:36.751Z,16.59
2023-05-10T19:11:07.153Z,16.46
2023-05-10T19:13:46.798Z,16.59
2023-05-10T19:16:24.876Z,16.56
2023-05-10T19:18:55.008Z,16.73
2023-05-10T19:21:27.031Z,16.75
2023-05-10T19:23:58.901Z,16.71
2023-05-10T19:26:34.623Z,16.73
2023-05-10T19:29:07.679Z,16.77
2023-05-10T19:31:40.980Z,16.74
2023-05-10T19:34:11.631Z,16.76
2023-05-10T19:36:43.995Z,16.76
2023-05-10T19:39:14.306Z,16.78
2023-05-10T19:41:44.508Z,16.72
2023-05-10T19:44:17.814Z,16.69
2023-05-10T19:46:49.185Z,16.65
2023-05-10T19:49:19.703Z,16.64
2023-05-10T19:51:50.323Z,16.70
2023-05-10T19:54:21.533Z,16.62
2023-05-10T19:56:51.810Z,16.75
2023-05-10T19:59:24.399Z,16.76
2023-05-10T20:01:54.961Z,16.59
2023-05-10T20:04:27.444Z,16.51
2023-05-10T20:06:58.520Z,16.35
2023-05-10T20:09:29.105Z,16.17
2023-05-10T20:12:00.000Z,16.27
2023-05-10T20:14:35.164Z,16.29
2023-05-10T20:17:05.492Z,16.44
2023-05-10T20:19:37.544Z,16.41
2023-05-10T20:22:09.632Z,16.16
2023-05-10T20:24:40.565Z,16.16
2023-05-10T20:27:11.495Z,16.05
2023-05-10T20:29:47.733Z,16.18
2023-05-10T20:32:18.336Z,16.02
2023-05-10T20:34:49.806Z,16.04
2023-05-10T20:37:20.299Z,16.01
2023-05-10T20:39:50.939Z,15.93
2023-05-10T20:42:21.915Z,15.84
2023-05-10T20:44:55.331Z,15.87
2023-05-10T20:47:26.318Z,15.84
2023-05-10T20:49:56.655Z,15.81
2023-05-10T20:52:27.645Z,15.81
2023-05-10T20:54:57.750Z,15.77
2023-05-10T20:57:35.268Z,15.68
2023-05-10T21:00:09.806Z,15.74
2023-05-10T21:02:40.252Z,15.80
2023-05-10T21:05:12.703Z,15.68
2023-05-10T21:07:43.750Z,15.73
2023-05-10T21:10:14.415Z,15.52
2023-05-10T21:12:46.724Z,15.47
2023-05-10T21:15:19.625Z,15.56
2023-05-10T21:17:49.622Z,15.51
2023-05-10T21:20:20.069Z,15.55
2023-05-10T21:22:51.298Z,15.45
2023-05-10T21:25:23.302Z,15.37
2023-05-10T21:27:53.863Z,15.40
2023-05-10T21:30:27.239Z,15.41
2023-05-10T21:33:00.218Z,15.44
2023-05-10T21:35:30.724Z,15.38
2023-05-10T21:38:03.804Z,15.21
2023-05-10T21:40:33.983Z,15.21
2023-05-10T21:43:03.995Z,15.19
2023-05-10T21:45:42.593Z,15.32
2023-05-10T21:48:19.051Z,15.18
2023-05-10T21:50:49.194Z,15.17
2023-05-10T21:53:19.542Z,15.23
2023-05-10T21:55:49.366Z,15.15
2023-05-10T21:58:19.325Z,15.22
2023-05-10T22:00:52.621Z,15.12
2023-05-10T22:03:22.792Z,15.08
2023-05-10T22:05:53.722Z,15.15
2023-05-10T22:08:45.822Z,15.25
2023-05-10T22:11:24.117Z,15.18
2023-05-10T22:13:54.641Z,15.24
2023-05-10T22:16:29.722Z,15.26
2023-05-10T22:19:02.377Z,15.27
2023-05-10T22:21:33.754Z,15.24
2023-05-10T22:24:06.235Z,15.28
2023-05-10T22:26:36.477Z,15.23
2023-05-10T22:29:08.351Z,15.24
2023-05-10T22:31:48.265Z,15.23
2023-05-10T22:34:19.619Z,15.19
2023-05-10T22:36:52.200Z,15.20
2023-05-10T22:39:25.088Z,15.19
2023-05-10T22:41:55.808Z,15.13
2023-05-10T22:44:26.660Z,15.13
2023-05-10T22:46:59.417Z,15.09
2023-05-10T22:49:31.968Z,14.99
2023-05-10T22:52:02.282Z,14.99
2023-05-10T22:54:36.148Z,14.94
2023-05-10T22:57:09.880Z,14.98
2023-05-10T22:59:41.237Z,14.98
2023-05-10T23:02:14.564Z,15.02
2023-05-10T23:04:45.122Z,15.02
2023-05-10T23:07:16.024Z,15.01
2023-05-10T23:09:46.261Z,14.99
2023-05-10T23:12:19.914Z,14.92
2023-05-10T23:14:50.893Z,14.88
2023-05-10T23:17:24.287Z,14.86
2023-05-10T23:19:54.368Z,14.80
2023-05-10T23:22:25.918Z,14.79
2023-05-10T23:24:56.094Z,14.81
2023-05-10T23:27:27.535Z,14.79
2023-05-10T23:29:58.953Z,14.81
2023-05-10T23:32:31.922Z,14.85
2023-05-10T23:35:03.450Z,14.84
2023-05-10T23:37:33.496Z,14.87
2023-05-10T23:40:03.875Z,14.77
2023-05-10T23:42:35.420Z,14.62
2023-05-10T23:45:05.301Z,14.69
2023-05-10T23:47:38.307Z,14.62
2023-05-10T23:50:09.792Z,14.62
2023-05-10T23:52:42.865Z,14.66
2023-05-10T23:55:14.292Z,14.68
2023-05-10T23:57:44.219Z,14.62
